createdAt,value
2023-04-02T00:00:01.488Z,64.54912139890837
2023-04-02T00:15:02.119Z,64.60521482146653
2023-04-02T00:30:01.798Z,64.51213518780541
2023-04-02T00:45:01.430Z,64.33297015631291
2023-04-02T01:00:02.058Z,64.23411524469412
2023-04-02T01:15:01.677Z,64.11355847322012
2023-04-02T01:30:01.329Z,64.11076650755636
2023-04-02T01:45:01.979Z,64.09094157775127
2023-04-02T02:00:01.644Z,63.95206119043036
2023-04-02T02:15:01.325Z,63.79258205050715
2023-04-02T02:30:01.982Z,63.68655824105083
2023-04-02T02:45:01.663Z,63.19627373752932
2023-04-02T03:00:01.452Z,63.27529117248147
2023-04-02T03:15:02.112Z,62.91834538846319
2023-04-02T03:30:01.810Z,62.929518465325195
2023-04-02T03:45:01.466Z,62.85718840189693
2023-04-02T04:00:02.083Z,62.72574159210876
2023-04-02T04:15:01.732Z,62.77497313233307
2023-04-02T04:30:01.918Z,63.49580901442515
2023-04-02T04:45:01.628Z,62.864431206717974
2023-04-02T05:00:02.267Z,63.4312993857879
2023-04-02T05:15:01.892Z,63.75223716929398
2023-04-02T05:30:01.534Z,63.404620643866735
2023-04-02T05:45:02.200Z,62.15675271094609
2023-04-02T06:00:01.930Z,61.43150921227506
2023-04-02T06:15:01.605Z,60.79830775899179
2023-04-02T06:30:02.295Z,59.588286157527165
2023-04-02T06:45:01.953Z,59.283284211138024
2023-04-02T07:00:01.570Z,58.89490718426828
2023-04-02T07:15:02.178Z,58.89466001823844
2023-04-02T07:30:01.810Z,58.248399530047195
2023-04-02T07:45:02.852Z,57.08524996268926
2023-04-02T08:00:01.353Z,56.0424569753578
2023-04-02T08:15:01.989Z,55.29030422189882
2023-04-02T08:30:01.597Z,52.980282286938646
2023-04-02T08:45:08.081Z,49.490278101873734
2023-04-02T09:00:01.672Z,47.190603481166775
2023-04-02T09:15:01.315Z,44.65825044462845
2023-04-02T09:30:02.012Z,44.67002865036428
2023-04-02T09:45:01.657Z,44.03403585979313
2023-04-02T10:00:01.225Z,37.87474376290942
2023-04-02T10:15:01.867Z,38.694004568178414
2023-04-02T10:30:01.611Z,34.398374672827266
2023-04-02T10:45:01.278Z,31.8239861150292
2023-04-02T11:00:01.905Z,35.969089857404036
2023-04-02T11:15:01.574Z,37.238731334403894
2023-04-02T11:30:01.294Z,27.988192058051776
2023-04-02T11:45:01.952Z,26.89414777079164
2023-04-02T12:00:01.579Z,23.99145732221505
2023-04-02T12:15:01.209Z,22.133756034618212
2023-04-02T12:30:02.217Z,20.777564852350444
2023-04-02T12:45:01.874Z,29.22517253549523
2023-04-02T13:00:01.439Z,25.064172440835723
2023-04-02T13:15:02.094Z,25.285726754873977
2023-04-02T13:30:01.771Z,23.63261569497114
2023-04-02T13:45:01.449Z,26.886620242369347
2023-04-02T14:00:02.061Z,27.10559690999655
2023-04-02T14:15:01.709Z,26.54764069237885
2023-04-02T14:30:01.394Z,26.28777961750484
2023-04-02T14:45:02.021Z,31.846444657296693
2023-04-02T15:00:01.819Z,33.41541729341421
2023-04-02T15:15:01.552Z,30.518564154710756
2023-04-02T15:30:02.194Z,32.78069387479848
2023-04-02T15:45:01.816Z,38.512824300931534
2023-04-02T16:00:01.499Z,39.691330881342076
2023-04-02T16:15:02.160Z,39.73135915780964
2023-04-02T16:30:01.871Z,38.95899623639106
2023-04-02T16:45:01.572Z,41.00151788312257
2023-04-02T17:00:02.202Z,41.0475132901056
2023-04-02T17:15:01.921Z,42.19366899075862
2023-04-02T17:30:01.555Z,45.58084125381941
2023-04-02T17:45:02.175Z,47.78394647028228
2023-04-02T18:00:01.777Z,49.15351703931254
2023-04-02T18:15:01.423Z,49.91255545253852
2023-04-02T18:30:02.134Z,50.70958080480376
2023-04-02T18:45:01.781Z,51.073036777363534
2023-04-02T19:00:01.433Z,50.03243458372864
2023-04-02T19:15:02.150Z,49.760625854424006
2023-04-02T19:30:01.844Z,49.62116847864677
2023-04-02T19:45:01.543Z,49.4239853448326
2023-04-02T20:00:01.198Z,50.13938137913691
2023-04-02T20:15:01.900Z,50.79788674713161
2023-04-02T20:30:01.942Z,50.96681181641613
2023-04-02T20:45:01.749Z,51.24748511993588
2023-04-02T21:00:01.528Z,51.33914635320015
2023-04-02T21:15:03.076Z,51.37679989018202
2023-04-02T21:30:01.871Z,51.49227739774129
2023-04-02T21:45:01.551Z,51.486888254990276
2023-04-02T22:00:02.390Z,51.65234483368344
2023-04-02T22:15:02.128Z,51.79039406454463
2023-04-02T22:30:01.860Z,51.79010283046892
2023-04-02T22:45:01.521Z,51.87962137756775
2023-04-02T23:00:02.218Z,51.92977691799546
2023-04-02T23:15:01.933Z,52.052476733456075
2023-04-02T23:30:01.632Z,52.15830149154181
2023-04-02T23:45:02.309Z,52.226482857133774
